createdAt,value
2023-02-14T00:15:05.484Z,100
2023-02-14T00:35:05.451Z,100
2023-02-14T00:55:05.439Z,100
2023-02-14T01:15:05.438Z,100
2023-02-14T01:35:05.409Z,100
2023-02-14T03:15:05.354Z,100
2023-02-14T03:35:05.316Z,100
2023-02-14T03:55:05.291Z,100
2023-02-14T04:35:05.244Z,100
2023-02-14T04:55:05.243Z,100
2023-02-14T05:35:05.197Z,100
2023-02-14T05:55:05.172Z,100
2023-02-14T06:15:05.164Z,100
2023-02-14T06:35:05.166Z,100
2023-02-14T06:55:05.139Z,100
2023-02-14T07:15:05.144Z,100
2023-02-14T09:15:04.970Z,90.7
2023-02-14T09:35:04.954Z,77.8
2023-02-14T10:15:04.877Z,67.7
2023-02-14T10:35:04.835Z,65.1
2023-02-14T10:55:04.810Z,61.7
2023-02-14T11:15:04.777Z,58.7
2023-02-14T11:35:04.739Z,56.6
2023-02-14T11:55:04.698Z,53.8
2023-02-14T12:15:04.674Z,52.6
2023-02-14T13:15:04.550Z,49.3
2023-02-14T13:35:04.497Z,49.4
2023-02-14T13:55:04.470Z,47.8
2023-02-14T14:15:04.429Z,48
2023-02-14T14:35:04.390Z,47.6
2023-02-14T14:55:04.362Z,49.5
2023-02-14T15:15:04.350Z,50
2023-02-14T15:35:04.299Z,50.3
2023-02-14T15:55:04.233Z,53.6
2023-02-14T16:15:04.194Z,56.2
2023-02-14T16:35:04.155Z,62.3
2023-02-14T17:15:04.115Z,75.7
2023-02-14T17:35:04.129Z,80.7
2023-02-14T17:55:04.024Z,84.6
2023-02-14T18:15:03.997Z,89.2
2023-02-14T18:55:03.945Z,92.1
2023-02-14T19:15:03.913Z,93.5
2023-02-14T19:35:03.902Z,94.7
2023-02-14T19:55:03.876Z,95.2
2023-02-14T20:15:03.843Z,95.8
2023-02-14T20:35:03.812Z,96.5
2023-02-14T21:15:03.769Z,97.5
2023-02-14T21:35:03.761Z,97.9
2023-02-14T21:55:03.734Z,98.2
2023-02-14T22:15:03.743Z,98.4
2023-02-14T22:55:03.693Z,99
2023-02-14T23:15:03.646Z,99.3
2023-02-14T23:35:03.623Z,99.5
2023-02-14T23:55:03.609Z,99.5
